Time;durP1;ratioP1;P1;durP2;ratioP2;P2;SDS_P1;SDS_P2;PMS_P1;PMS_P2;Temp;Humidity;BMP_temperature;BMP_pressure;BME280_temperature;BME280_humidity;BME280_pressure;Samples;Min_cycle;Max_cycle;Signal;HPM_P1;HPM_P2
2022/04/17 00:01:55;;;;;;;3.07;2.37;;;7.60;99.90;;;;;;4891881;29;20216;-74
2022/04/17 00:04:22;;;;;;;5.30;2.70;;;7.60;99.90;;;;;;4910139;29;20685;-74
2022/04/17 00:06:49;;;;;;;3.50;2.50;;;7.50;99.90;;;;;;4905753;29;20203;-74
2022/04/17 00:09:15;;;;;;;4.03;2.70;;;7.30;99.90;;;;;;4907473;29;20235;-74
2022/04/17 00:11:42;;;;;;;2.57;2.37;;;7.30;99.90;;;;;;4894017;29;20221;-74
2022/04/17 00:14:12;;;;;;;3.40;2.80;;;7.30;99.90;;;;;;4894537;29;20207;-76
2022/04/17 00:16:42;;;;;;;3.67;2.57;;;7.30;99.90;;;;;;4891410;29;20235;-74
2022/04/17 00:19:09;;;;;;;4.20;2.60;;;7.30;99.90;;;;;;4894755;29;20218;-74
2022/04/17 00:21:36;;;;;;;3.47;2.50;;;7.40;99.90;;;;;;4894934;29;20200;-74
2022/04/17 00:24:03;;;;;;;3.40;2.60;;;7.40;99.90;;;;;;4891267;29;20200;-74
2022/04/17 00:26:29;;;;;;;3.83;2.30;;;7.40;99.90;;;;;;4890413;29;20223;-76
2022/04/17 00:28:57;;;;;;;3.97;2.33;;;7.40;99.90;;;;;;4906353;29;20224;-74
2022/04/17 00:31:24;;;;;;;3.03;2.30;;;7.40;99.90;;;;;;4891598;29;20795;-74
2022/04/17 00:33:51;;;;;;;2.53;2.27;;;7.40;99.90;;;;;;4895571;29;20719;-74
2022/04/17 00:36:17;;;;;;;3.13;2.43;;;7.30;99.90;;;;;;4889089;29;20200;-74
2022/04/17 00:38:45;;;;;;;4.57;2.50;;;7.40;99.90;;;;;;4897089;29;20235;-73
2022/04/17 00:41:12;;;;;;;2.87;2.43;;;7.40;99.90;;;;;;4892673;29;20235;-74
2022/04/17 00:43:46;;;;;;;4.90;2.30;;;7.30;99.90;;;;;;4895889;29;20208;-75
2022/04/17 00:46:14;;;;;;;3.43;2.70;;;7.30;99.90;;;;;;4893842;29;20203;-75
2022/04/17 00:48:40;;;;;;;4.13;2.50;;;7.20;99.90;;;;;;4907904;29;20944;-76
2022/04/17 00:51:09;;;;;;;3.20;2.40;;;7.20;99.90;;;;;;4894865;29;20228;-74
2022/04/17 00:53:37;;;;;;;3.97;2.10;;;7.20;99.90;;;;;;4909078;29;20210;-73
2022/04/17 00:56:04;;;;;;;2.50;2.23;;;7.10;99.90;;;;;;4891041;29;20288;-74
2022/04/17 00:58:32;;;;;;;3.47;2.53;;;7.10;99.90;;;;;;4894525;29;20196;-74
2022/04/17 01:00:59;;;;;;;2.27;2.07;;;7.10;99.90;;;;;;4896351;29;20244;-76
2022/04/17 01:03:28;;;;;;;3.90;2.37;;;7.00;99.90;;;;;;4892894;29;20649;-74
2022/04/17 01:05:55;;;;;;;3.93;2.30;;;7.00;99.90;;;;;;4891944;29;20199;-72
2022/04/17 01:08:21;;;;;;;4.90;2.23;;;7.10;99.90;;;;;;4894532;29;20275;-75
2022/04/17 01:10:48;;;;;;;3.07;2.43;;;7.10;99.90;;;;;;4913534;29;20208;-74
2022/04/17 01:13:17;;;;;;;4.27;2.17;;;7.10;99.90;;;;;;4914604;29;20208;-74
2022/04/17 01:15:44;;;;;;;3.63;2.43;;;7.10;99.90;;;;;;4897821;29;20196;-76
2022/04/17 01:18:11;;;;;;;3.73;2.27;;;7.00;99.90;;;;;;4899175;29;20204;-74
2022/04/17 01:20:38;;;;;;;3.00;2.03;;;7.00;99.90;;;;;;4894433;29;20231;-74
2022/04/17 01:28:36;;;;;;;3.63;2.30;;;6.90;99.90;;;;;;4889611;29;20196;-73
2022/04/17 01:31:03;;;;;;;3.07;2.20;;;6.90;99.90;;;;;;4893279;29;20196;-76
2022/04/17 01:33:30;;;;;;;2.93;2.30;;;6.90;99.90;;;;;;4893633;29;20227;-74
2022/04/17 01:35:57;;;;;;;2.90;2.30;;;6.70;99.90;;;;;;4893210;29;20212;-74
2022/04/17 01:38:24;;;;;;;3.10;2.30;;;6.70;99.90;;;;;;4896677;29;20200;-74
2022/04/17 01:40:50;;;;;;;4.07;2.33;;;6.70;99.90;;;;;;4899979;29;20687;-74
2022/04/17 01:43:17;;;;;;;2.40;1.97;;;6.70;99.90;;;;;;4893244;29;20204;-74
2022/04/17 01:45:43;;;;;;;4.37;2.40;;;6.80;99.90;;;;;;4891034;29;20224;-75
2022/04/17 01:48:10;;;;;;;4.13;1.97;;;6.80;99.90;;;;;;4911758;29;20209;-74
2022/04/17 01:50:37;;;;;;;2.87;2.00;;;6.70;99.90;;;;;;4886740;29;20257;-73
2022/04/17 01:53:04;;;;;;;2.30;1.97;;;6.70;99.90;;;;;;4894955;29;20600;-76
2022/04/17 01:55:31;;;;;;;2.80;2.10;;;6.60;99.90;;;;;;4892475;29;20204;-74
2022/04/17 01:57:57;;;;;;;2.83;2.10;;;6.60;99.90;;;;;;4895365;29;20201;-73
2022/04/17 02:00:25;;;;;;;3.83;2.10;;;6.60;99.90;;;;;;4896736;29;20276;-74
2022/04/17 02:02:52;;;;;;;2.90;2.20;;;6.70;99.90;;;;;;4895961;29;20208;-74
2022/04/17 02:05:19;;;;;;;2.70;2.00;;;6.60;99.90;;;;;;4897020;29;20197;-74
2022/04/17 02:07:46;;;;;;;3.20;2.10;;;6.50;99.90;;;;;;4891124;29;20192;-74
2022/04/17 02:10:19;;;;;;;2.70;2.00;;;6.40;99.90;;;;;;4922742;29;20243;-76
2022/04/17 02:12:47;;;;;;;2.83;2.20;;;6.50;99.90;;;;;;4894923;29;20220;-76
2022/04/17 02:15:14;;;;;;;2.60;2.00;;;6.50;99.90;;;;;;4892120;29;20966;-74
2022/04/17 02:17:41;;;;;;;3.60;2.20;;;6.50;99.90;;;;;;4891369;29;20208;-75
2022/04/17 02:20:10;;;;;;;2.57;2.13;;;6.40;99.90;;;;;;4893395;29;20232;-74
2022/04/17 02:22:37;;;;;;;2.63;2.00;;;6.30;99.90;;;;;;4891078;29;20204;-74
2022/04/17 02:25:04;;;;;;;2.63;2.10;;;6.20;99.90;;;;;;4894767;29;20677;-74
2022/04/17 02:27:32;;;;;;;2.57;2.00;;;6.20;99.90;;;;;;4922023;29;20198;-76
2022/04/17 02:29:58;;;;;;;3.07;2.30;;;6.20;99.90;;;;;;4893517;29;20963;-74
2022/04/17 02:32:25;;;;;;;2.53;2.03;;;6.10;99.90;;;;;;4896154;29;20740;-75
2022/04/17 02:34:52;;;;;;;4.17;2.27;;;6.10;99.90;;;;;;4894989;29;20278;-75
2022/04/17 02:37:20;;;;;;;2.90;2.20;;;6.10;99.90;;;;;;4892544;29;20202;-74
2022/04/17 02:39:48;;;;;;;2.77;2.20;;;6.10;99.90;;;;;;4894366;29;20224;-76
2022/04/17 02:42:14;;;;;;;3.23;2.40;;;6.10;99.90;;;;;;4892957;29;20214;-74
2022/04/17 02:44:41;;;;;;;3.00;2.10;;;6.10;99.90;;;;;;4893843;29;20200;-73
2022/04/17 02:49:53;;;;;;;2.97;2.20;;;6.10;99.90;;;;;;4895044;29;20290;-74
2022/04/17 02:52:20;;;;;;;4.90;2.20;;;6.10;99.90;;;;;;4892201;29;20742;-75
2022/04/17 02:54:46;;;;;;;3.03;2.07;;;6.00;99.90;;;;;;4893700;29;20201;-76
2022/04/17 02:57:13;;;;;;;2.83;1.93;;;6.10;99.90;;;;;;4893061;29;20197;-77
2022/04/17 02:59:40;;;;;;;2.53;2.10;;;6.10;99.90;;;;;;4893068;29;20222;-74
2022/04/17 03:07:37;;;;;;;2.33;2.00;;;6.20;99.90;;;;;;4889424;29;20564;-76
2022/04/17 03:10:04;;;;;;;2.17;1.93;;;6.30;99.90;;;;;;4894585;29;20225;-74
2022/04/17 03:12:31;;;;;;;2.13;1.90;;;6.20;99.90;;;;;;4893028;29;20215;-75
2022/04/17 03:14:58;;;;;;;2.53;2.00;;;6.20;99.90;;;;;;4892826;29;20204;-74
2022/04/17 03:17:24;;;;;;;2.87;1.80;;;6.20;99.90;;;;;;4904097;29;20594;-77
2022/04/17 03:19:52;;;;;;;2.80;1.73;;;6.20;99.90;;;;;;4893485;29;20219;-74
2022/04/17 03:22:22;;;;;;;2.90;2.17;;;6.00;99.90;;;;;;4887161;29;20197;-74
2022/04/17 03:24:49;;;;;;;3.80;2.20;;;6.00;99.90;;;;;;4893165;29;20218;-75
2022/04/17 03:27:15;;;;;;;2.93;1.80;;;6.00;99.90;;;;;;4893444;29;20605;-74
2022/04/17 03:29:42;;;;;;;5.73;2.50;;;5.90;99.90;;;;;;4923411;29;20226;-74
2022/04/17 03:32:09;;;;;;;3.07;2.17;;;5.90;99.90;;;;;;4921125;29;20204;-77
2022/04/17 03:34:36;;;;;;;3.87;2.00;;;5.80;99.90;;;;;;4891874;29;20203;-76
2022/04/17 03:37:04;;;;;;;3.70;2.00;;;5.90;99.90;;;;;;4892463;29;20810;-78
2022/04/17 03:39:31;;;;;;;2.90;2.10;;;6.00;99.90;;;;;;4906027;29;20243;-74
2022/04/17 03:41:58;;;;;;;2.20;2.00;;;6.00;99.90;;;;;;4894045;29;20238;-74
2022/04/17 03:44:25;;;;;;;2.80;2.07;;;6.00;99.90;;;;;;4891099;29;20197;-75
2022/04/17 03:46:52;;;;;;;2.03;1.80;;;6.00;99.90;;;;;;4895343;29;20196;-74
2022/04/17 03:49:19;;;;;;;3.13;1.90;;;5.90;99.90;;;;;;4892984;29;20228;-74
2022/04/17 03:51:45;;;;;;;3.20;2.03;;;5.80;99.90;;;;;;4892753;29;20204;-74
2022/04/17 03:54:12;;;;;;;3.90;2.00;;;5.90;99.90;;;;;;4892676;29;20207;-75
2022/04/17 03:56:39;;;;;;;3.23;2.03;;;5.80;99.90;;;;;;4892961;29;20204;-74
2022/04/17 03:59:05;;;;;;;2.97;2.07;;;5.80;99.90;;;;;;4921410;29;20269;-76
2022/04/17 04:01:32;;;;;;;3.80;2.03;;;5.70;99.90;;;;;;4892953;29;20227;-76
2022/04/17 04:03:59;;;;;;;4.33;2.03;;;5.80;99.90;;;;;;4891632;29;20283;-76
2022/04/17 04:06:25;;;;;;;3.20;2.03;;;5.90;99.90;;;;;;4894532;29;20666;-74
2022/04/17 04:08:53;;;;;;;3.03;2.00;;;5.90;99.90;;;;;;4891525;29;20583;-75
2022/04/17 04:11:19;;;;;;;3.33;2.10;;;5.90;99.90;;;;;;4892716;29;20209;-74
2022/04/17 04:13:46;;;;;;;3.20;1.93;;;5.90;99.90;;;;;;4888169;29;20672;-75
2022/04/17 04:16:13;;;;;;;3.03;1.90;;;5.90;99.90;;;;;;4893669;29;20205;-76
2022/04/17 04:18:39;;;;;;;3.20;2.47;;;5.90;99.90;;;;;;4890661;29;20211;-74
2022/04/17 04:21:06;;;;;;;4.90;2.60;;;5.90;99.90;;;;;;4891983;29;20222;-75
2022/04/17 04:23:33;;;;;;;3.53;2.20;;;6.10;99.90;;;;;;4891205;29;20205;-74
2022/04/17 04:26:01;;;;;;;2.40;2.00;;;6.10;99.90;;;;;;4895581;29;20203;-75
2022/04/17 04:28:36;;;;;;;3.10;2.00;;;6.10;99.90;;;;;;4899657;29;20211;-74
2022/04/17 04:31:07;;;;;;;2.23;1.93;;;6.00;99.90;;;;;;4888048;29;20213;-73
2022/04/17 04:33:35;;;;;;;3.20;2.30;;;6.10;99.90;;;;;;4892404;29;20209;-76
2022/04/17 04:36:04;;;;;;;3.97;2.40;;;6.10;99.90;;;;;;4895686;29;20204;-75
2022/04/17 04:38:31;;;;;;;4.13;2.00;;;6.10;99.90;;;;;;4893837;29;20292;-76
2022/04/17 04:41:01;;;;;;;3.13;2.20;;;6.10;99.90;;;;;;4894698;29;20276;-75
2022/04/17 04:43:28;;;;;;;3.60;2.27;;;6.10;99.90;;;;;;4896502;29;20209;-74
2022/04/17 04:46:07;;;;;;;3.50;2.20;;;6.10;99.90;;;;;;4892151;29;20207;-75
2022/04/17 04:51:20;;;;;;;3.43;2.07;;;6.00;99.90;;;;;;4895102;29;20203;-75
2022/04/17 04:53:47;;;;;;;2.53;1.73;;;6.00;99.90;;;;;;4892430;29;20680;-76
2022/04/17 04:56:13;;;;;;;2.83;1.90;;;6.10;99.90;;;;;;4900095;29;20212;-79
2022/04/17 04:58:40;;;;;;;3.03;2.03;;;6.00;99.90;;;;;;4890576;29;20254;-76
2022/04/17 05:01:07;;;;;;;2.83;2.27;;;6.10;99.90;;;;;;4897237;29;20733;-78
2022/04/17 05:03:35;;;;;;;4.10;2.20;;;6.10;99.90;;;;;;4894646;29;20234;-74
2022/04/17 05:06:02;;;;;;;2.60;2.00;;;6.10;99.90;;;;;;4906599;29;20248;-76
2022/04/17 05:08:30;;;;;;;3.50;2.17;;;6.10;99.90;;;;;;4895775;29;20197;-76
2022/04/17 05:10:57;;;;;;;2.93;2.17;;;6.10;99.90;;;;;;4910047;29;20196;-73
2022/04/17 05:13:23;;;;;;;2.80;2.13;;;6.20;99.90;;;;;;4897532;29;20408;-78
2022/04/17 05:15:50;;;;;;;4.60;2.20;;;6.20;99.90;;;;;;4898868;29;20287;-75
2022/04/17 05:18:17;;;;;;;2.50;1.90;;;6.20;99.90;;;;;;4897003;29;20205;-75
2022/04/17 05:20:44;;;;;;;3.93;2.30;;;6.10;99.90;;;;;;4891911;29;20227;-77
2022/04/17 05:23:29;;;;;;;4.00;2.40;;;6.10;99.90;;;;;;4909784;29;20200;-76
2022/04/17 05:25:57;;;;;;;3.03;2.20;;;6.10;99.90;;;;;;4896567;29;20210;-75
2022/04/17 05:28:25;;;;;;;2.67;1.90;;;6.30;99.90;;;;;;4896497;29;20201;-78
2022/04/17 05:30:52;;;;;;;3.27;1.90;;;6.30;99.90;;;;;;4892917;29;20313;-75
2022/04/17 05:33:22;;;;;;;2.70;1.90;;;6.30;99.90;;;;;;4898264;29;20213;-76
2022/04/17 05:35:49;;;;;;;4.37;2.10;;;6.40;99.90;;;;;;4893761;29;20208;-77
2022/04/17 05:38:17;;;;;;;3.50;2.10;;;6.60;99.90;;;;;;4912188;29;20206;-77
2022/04/17 05:40:50;;;;;;;2.33;1.90;;;6.70;99.90;;;;;;4890759;29;20240;-76
2022/04/17 05:43:18;;;;;;;5.33;1.90;;;6.90;99.90;;;;;;4897445;29;20213;-77
2022/04/17 05:45:45;;;;;;;4.47;2.17;;;7.00;99.90;;;;;;4900355;29;20206;-75
2022/04/17 05:48:13;;;;;;;3.63;2.20;;;7.00;99.90;;;;;;4895282;29;20199;-75
2022/04/17 05:50:41;;;;;;;2.97;2.20;;;7.10;99.90;;;;;;4898413;29;20226;-74
2022/04/17 05:53:08;;;;;;;2.77;2.00;;;7.30;99.90;;;;;;4892516;29;20702;-76
2022/04/17 05:55:35;;;;;;;3.50;1.90;;;7.40;99.90;;;;;;4894726;29;20295;-75
2022/04/17 05:58:02;;;;;;;1.70;1.60;;;7.60;99.90;;;;;;4910732;29;20200;-75
2022/04/17 06:00:29;;;;;;;4.27;2.00;;;7.80;99.90;;;;;;4894023;29;20221;-77
2022/04/17 06:02:56;;;;;;;4.83;2.17;;;7.80;99.90;;;;;;4892113;29;20697;-75
2022/04/17 06:05:23;;;;;;;2.23;1.87;;;8.00;99.90;;;;;;4896010;29;20655;-77
2022/04/17 06:07:49;;;;;;;2.40;1.90;;;8.00;99.90;;;;;;4894862;29;20573;-76
2022/04/17 06:10:16;;;;;;;2.20;2.00;;;8.00;99.90;;;;;;4890795;29;20244;-75
2022/04/17 06:12:43;;;;;;;3.40;2.20;;;8.10;99.90;;;;;;4897574;29;20193;-75
2022/04/17 06:15:11;;;;;;;3.93;2.03;;;8.10;99.90;;;;;;4894735;29;20208;-76
2022/04/17 06:17:39;;;;;;;3.87;2.00;;;8.10;99.90;;;;;;4893580;29;20252;-76
2022/04/17 06:20:09;;;;;;;3.60;2.00;;;8.10;99.90;;;;;;4892906;29;20748;-75
2022/04/17 06:22:36;;;;;;;4.63;2.13;;;8.10;99.90;;;;;;4898338;29;20346;-76
2022/04/17 06:25:05;;;;;;;3.27;2.10;;;8.10;99.90;;;;;;4888964;29;20675;-73
2022/04/17 06:27:39;;;;;;;3.17;2.10;;;8.20;99.90;;;;;;4896503;29;20245;-76
2022/04/17 06:30:11;;;;;;;2.63;1.90;;;8.30;99.90;;;;;;4898809;29;20700;-76
2022/04/17 06:32:38;;;;;;;3.03;2.17;;;8.40;99.90;;;;;;4894673;29;20216;-77
2022/04/17 06:35:09;;;;;;;6.47;2.10;;;8.50;99.90;;;;;;4897705;29;20198;-76
2022/04/17 06:37:59;;;;;;;4.77;2.10;;;8.40;99.90;;;;;;4898773;29;20203;-75
2022/04/17 06:40:28;;;;;;;3.27;2.30;;;8.60;99.90;;;;;;4895311;29;20243;-76
2022/04/17 06:43:01;;;;;;;3.37;2.10;;;8.70;99.90;;;;;;4895371;29;20228;-75
2022/04/17 06:45:28;;;;;;;4.30;2.40;;;8.90;99.90;;;;;;4923295;29;20716;-75
2022/04/17 06:47:55;;;;;;;2.90;2.03;;;8.90;99.90;;;;;;4893661;29;20223;-75
2022/04/17 06:50:22;;;;;;;2.33;2.13;;;9.00;99.90;;;;;;4895231;29;20228;-75
2022/04/17 06:52:50;;;;;;;3.17;2.20;;;9.00;99.90;;;;;;4893886;29;20702;-75
2022/04/17 06:55:17;;;;;;;4.27;2.33;;;9.10;99.90;;;;;;4909544;29;20290;-76
2022/04/17 06:57:51;;;;;;;3.03;2.20;;;9.30;99.90;;;;;;4896959;29;20212;-75
2022/04/17 07:00:22;;;;;;;2.83;2.20;;;9.40;99.90;;;;;;4903953;29;20232;-75
2022/04/17 07:02:51;;;;;;;3.87;2.40;;;9.50;99.90;;;;;;4892929;29;20255;-77
2022/04/17 07:05:18;;;;;;;2.90;2.20;;;9.60;99.90;;;;;;4891641;29;20740;-75
2022/04/17 07:07:44;;;;;;;2.90;2.20;;;9.70;99.90;;;;;;4894659;29;20200;-75
2022/04/17 07:10:11;;;;;;;2.60;2.00;;;9.80;99.90;;;;;;4897519;29;20235;-78
2022/04/17 07:12:39;;;;;;;3.13;2.20;;;10.10;99.90;;;;;;4900678;29;20204;-76
2022/04/17 07:15:10;;;;;;;3.40;2.33;;;10.40;99.90;;;;;;4911296;29;20236;-78
2022/04/17 07:17:37;;;;;;;5.00;2.57;;;10.90;99.90;;;;;;4894243;29;20223;-76
2022/04/17 07:20:06;;;;;;;3.20;2.10;;;11.30;99.90;;;;;;4899445;29;20737;-76
2022/04/17 07:22:34;;;;;;;5.33;2.10;;;11.70;99.90;;;;;;4899661;29;20219;-76
2022/04/17 07:25:01;;;;;;;4.30;2.40;;;11.90;99.90;;;;;;4905037;29;20207;-79
2022/04/17 07:27:33;;;;;;;2.13;1.90;;;11.90;99.90;;;;;;4898351;29;20212;-76
2022/04/17 07:30:00;;;;;;;3.50;2.23;;;11.80;99.90;;;;;;4894536;29;20220;-74
2022/04/17 07:32:29;;;;;;;3.60;2.20;;;11.80;99.90;;;;;;4891889;29;20595;-75
2022/04/17 07:34:58;;;;;;;4.43;2.20;;;11.90;99.90;;;;;;4893760;29;20215;-73
2022/04/17 07:37:27;;;;;;;3.33;2.30;;;12.00;99.90;;;;;;4894180;29;20204;-78
2022/04/17 07:39:54;;;;;;;3.80;2.60;;;11.90;99.90;;;;;;4894179;29;20598;-79
2022/04/17 07:42:21;;;;;;;5.10;2.70;;;11.70;99.90;;;;;;4893702;29;20221;-78
2022/04/17 07:44:48;;;;;;;3.90;2.40;;;11.70;99.90;;;;;;4896503;29;20200;-78
2022/04/17 07:47:16;;;;;;;4.60;2.47;;;11.90;99.90;;;;;;4897093;29;20200;-80
2022/04/17 07:49:43;;;;;;;7.03;2.53;;;11.90;99.90;;;;;;4893578;29;20232;-80
2022/04/17 07:52:10;;;;;;;3.60;2.60;;;12.00;99.90;;;;;;4910455;29;20209;-83
2022/04/17 07:54:37;;;;;;;3.83;2.37;;;12.10;99.90;;;;;;4894965;29;20197;-82
2022/04/17 07:57:04;;;;;;;5.43;2.63;;;12.20;99.90;;;;;;4897837;29;20224;-84
2022/04/17 07:59:30;;;;;;;2.50;2.17;;;12.30;99.90;;;;;;4895208;29;20226;-86
2022/04/17 08:02:28;;;;;;;4.00;2.57;;;12.40;99.90;;;;;;4896641;29;20616;-84
2022/04/17 08:04:55;;;;;;;2.60;2.10;;;12.40;99.90;;;;;;4886668;29;20207;-82
2022/04/17 08:07:22;;;;;;;4.30;2.60;;;12.30;99.90;;;;;;4906159;29;20671;-80
2022/04/17 08:09:49;;;;;;;4.60;3.00;;;12.30;99.90;;;;;;4892669;29;20223;-84
2022/04/17 08:12:20;;;;;;;5.63;3.67;;;12.40;99.90;;;;;;4895759;29;20221;-79
2022/04/17 08:14:47;;;;;;;4.80;2.87;;;12.60;99.90;;;;;;4894327;29;20231;-85
2022/04/17 08:17:13;;;;;;;7.90;3.90;;;12.60;99.90;;;;;;4892813;29;20207;-79
2022/04/17 08:19:40;;;;;;;4.27;2.40;;;12.70;99.90;;;;;;4894574;29;20230;-76
2022/04/17 08:22:07;;;;;;;3.67;2.10;;;12.90;99.90;;;;;;4896432;29;20313;-79
2022/04/17 08:24:34;;;;;;;3.83;2.33;;;13.00;99.90;;;;;;4896380;29;20211;-76
2022/04/17 08:27:00;;;;;;;4.73;2.23;;;13.10;99.90;;;;;;4895505;29;20215;-76
2022/04/17 08:29:27;;;;;;;5.93;2.37;;;13.10;99.90;;;;;;4895210;29;20222;-76
2022/04/17 08:31:54;;;;;;;3.67;2.37;;;13.00;99.90;;;;;;4895051;29;20270;-84
2022/04/17 08:34:21;;;;;;;2.30;2.07;;;12.80;99.90;;;;;;4913068;29;20246;-81
2022/04/17 08:36:48;;;;;;;3.43;2.40;;;12.90;99.90;;;;;;4894968;29;20213;-82
2022/04/17 08:39:16;;;;;;;3.77;2.40;;;13.10;99.90;;;;;;4895731;29;20220;-79
2022/04/17 08:41:46;;;;;;;2.73;2.33;;;13.00;99.90;;;;;;4892641;29;20223;-77
2022/04/17 08:44:13;;;;;;;3.70;2.13;;;13.10;99.90;;;;;;4888641;29;20204;-76
2022/04/17 08:46:41;;;;;;;4.43;2.30;;;13.30;99.90;;;;;;4894249;29;20283;-76
2022/04/17 08:49:11;;;;;;;2.87;2.30;;;13.40;99.90;;;;;;4892721;29;20700;-76
2022/04/17 08:51:39;;;;;;;3.00;2.30;;;13.50;99.90;;;;;;4890182;29;20793;-75
2022/04/17 08:54:06;;;;;;;5.00;2.50;;;13.60;99.90;;;;;;4902572;29;20204;-74
2022/04/17 08:56:36;;;;;;;4.77;2.37;;;13.70;99.90;;;;;;4889849;29;20209;-75
2022/04/17 08:59:03;;;;;;;3.73;2.40;;;13.60;99.90;;;;;;4885197;29;20220;-75
2022/04/17 09:01:32;;;;;;;4.23;2.70;;;13.50;99.90;;;;;;4887570;29;20374;-76
2022/04/17 09:03:59;;;;;;;3.17;2.30;;;13.50;99.90;;;;;;4892531;29;20227;-77
2022/04/17 09:06:26;;;;;;;3.23;2.43;;;13.60;99.90;;;;;;4887615;29;20576;-78
2022/04/17 09:09:06;;;;;;;3.37;2.40;;;13.30;99.90;;;;;;4891603;29;20775;-80
2022/04/17 09:11:34;;;;;;;3.37;2.30;;;13.40;99.90;;;;;;4889303;29;20614;-78
2022/04/17 09:14:04;;;;;;;2.87;2.03;;;13.50;99.90;;;;;;4893367;29;20200;-77
2022/04/17 09:16:35;;;;;;;4.70;2.47;;;13.70;99.90;;;;;;4884941;29;20197;-80
2022/04/17 09:19:19;;;;;;;4.77;2.47;;;13.40;99.90;;;;;;4892446;29;20603;-78
2022/04/17 09:21:45;;;;;;;2.87;2.30;;;13.50;99.90;;;;;;4892592;29;20231;-80
2022/04/17 09:24:20;;;;;;;3.63;2.33;;;13.50;99.90;;;;;;4890869;29;20216;-79
2022/04/17 09:26:51;;;;;;;4.97;2.50;;;13.50;99.90;;;;;;4889087;29;20206;-78
2022/04/17 09:29:26;;;;;;;3.63;2.57;;;13.60;99.90;;;;;;4889219;29;20238;-77
2022/04/17 09:31:57;;;;;;;3.20;2.30;;;13.80;99.90;;;;;;4887323;29;20277;-75
2022/04/17 09:34:25;;;;;;;3.97;2.40;;;13.90;99.90;;;;;;4891849;29;20303;-77
2022/04/17 09:37:01;;;;;;;3.67;2.40;;;13.60;99.90;;;;;;4901033;29;20235;-76
2022/04/17 09:39:35;;;;;;;5.07;2.47;;;13.50;99.90;;;;;;4890172;29;20232;-80
2022/04/17 09:42:03;;;;;;;3.60;2.40;;;13.80;99.90;;;;;;4888546;29;20727;-75
2022/04/17 09:44:47;;;;;;;3.63;2.50;;;14.10;99.90;;;;;;4889798;29;20210;-76
2022/04/17 09:47:18;;;;;;;4.10;2.30;;;14.40;99.90;;;;;;4884188;29;20206;-78
2022/04/17 09:49:52;;;;;;;3.70;2.40;;;14.60;99.90;;;;;;4889361;29;20228;-75
2022/04/17 09:52:19;;;;;;;4.03;2.53;;;14.70;99.90;;;;;;4889601;29;20208;-74
2022/04/17 09:54:48;;;;;;;4.07;2.60;;;14.90;99.90;;;;;;4890837;29;20211;-73
2022/04/17 09:57:42;;;;;;;3.37;2.40;;;14.90;99.90;;;;;;4890703;29;20204;-74
2022/04/17 10:00:11;;;;;;;4.40;2.73;;;15.20;99.90;;;;;;4887161;29;20223;-73
2022/04/17 10:02:38;;;;;;;5.43;2.97;;;15.10;99.70;;;;;;4887920;29;20231;-76
2022/04/17 10:05:07;;;;;;;4.97;2.93;;;15.30;99.60;;;;;;4891140;29;20197;-75
2022/04/17 10:07:37;;;;;;;3.83;2.77;;;15.40;99.90;;;;;;4887628;29;20207;-76
2022/04/17 10:10:05;;;;;;;2.70;2.33;;;15.60;99.60;;;;;;4889374;29;20620;-72
2022/04/17 10:12:34;;;;;;;4.00;2.40;;;15.60;99.50;;;;;;4889941;29;20204;-77
2022/04/17 10:15:04;;;;;;;2.97;2.30;;;15.60;99.80;;;;;;4887955;29;20219;-72
2022/04/17 10:17:31;;;;;;;3.57;2.67;;;15.40;99.70;;;;;;4887151;29;20203;-76
2022/04/17 10:20:06;;;;;;;5.00;2.87;;;15.00;99.70;;;;;;4901520;29;20492;-74
2022/04/17 10:22:33;;;;;;;4.40;2.43;;;14.90;99.90;;;;;;4890155;29;20454;-75
2022/04/17 10:25:02;;;;;;;3.87;2.70;;;15.10;99.90;;;;;;4888312;29;20219;-74
2022/04/17 10:27:36;;;;;;;2.93;2.47;;;15.40;99.60;;;;;;4886754;29;20204;-73
2022/04/17 10:30:08;;;;;;;3.90;2.60;;;15.40;99.30;;;;;;4890079;29;20230;-74
2022/04/17 10:32:47;;;;;;;3.90;2.20;;;15.50;99.00;;;;;;4901946;29;20269;-72
2022/04/17 10:35:24;;;;;;;3.03;2.33;;;15.30;98.50;;;;;;4888367;29;20592;-73
2022/04/17 10:38:18;;;;;;;5.10;2.37;;;15.50;99.50;;;;;;4890916;29;20207;-71
2022/04/17 10:40:57;;;;;;;4.17;2.80;;;15.60;99.40;;;;;;4881945;29;20420;-72
2022/04/17 10:43:31;;;;;;;5.77;2.30;;;15.70;98.50;;;;;;4886471;29;20231;-72
2022/04/17 10:46:12;;;;;;;4.20;2.33;;;15.60;98.00;;;;;;4888993;29;20255;-71
2022/04/17 10:48:47;;;;;;;3.23;2.20;;;15.40;97.80;;;;;;4891698;29;20572;-72
2022/04/17 10:51:24;;;;;;;4.30;2.40;;;15.30;98.00;;;;;;4892631;29;20204;-71
2022/04/17 10:54:04;;;;;;;3.30;2.20;;;15.60;98.80;;;;;;4891847;29;20200;-71
2022/04/17 10:56:33;;;;;;;3.57;2.30;;;15.90;97.60;;;;;;4886500;29;20204;-73
2022/04/17 10:59:07;;;;;;;3.40;2.43;;;15.90;97.00;;;;;;4886634;29;20712;-72
2022/04/17 11:01:43;;;;;;;4.20;2.60;;;16.20;97.50;;;;;;4886988;29;20215;-72
2022/04/17 11:04:21;;;;;;;3.73;2.37;;;16.50;97.90;;;;;;4888839;29;20215;-79
2022/04/17 11:07:05;;;;;;;4.20;2.90;;;16.60;97.40;;;;;;4886817;29;20196;-73
2022/04/17 11:09:34;;;;;;;3.00;2.30;;;16.80;97.20;;;;;;4885395;29;20609;-74
2022/04/17 11:12:10;;;;;;;6.63;3.63;;;17.00;95.80;;;;;;4886962;29;20201;-76
2022/04/17 11:14:40;;;;;;;6.00;2.67;;;16.90;96.70;;;;;;4882706;29;20204;-74
2022/04/17 11:17:08;;;;;;;5.00;2.80;;;17.00;96.30;;;;;;4890308;29;20271;-71
2022/04/17 11:19:38;;;;;;;3.80;2.40;;;16.70;96.00;;;;;;4912088;29;20216;-75
2022/04/17 11:22:08;;;;;;;3.37;2.50;;;16.80;96.00;;;;;;4887386;29;20559;-74
2022/04/17 11:24:55;;;;;;;3.70;2.23;;;16.90;96.00;;;;;;4887382;29;20238;-79
2022/04/17 11:27:51;;;;;;;3.77;1.80;;;17.10;94.90;;;;;;4886829;29;20210;-75
2022/04/17 11:30:37;;;;;;;2.70;2.10;;;16.70;94.80;;;;;;4878932;29;20288;-74
2022/04/17 11:33:05;;;;;;;3.33;2.27;;;16.90;95.10;;;;;;4885875;29;20207;-74
2022/04/17 11:35:32;;;;;;;6.17;2.50;;;17.10;95.40;;;;;;4888604;29;20213;-75
2022/04/17 11:38:07;;;;;;;3.57;2.53;;;17.30;95.00;;;;;;4905747;29;20212;-74
2022/04/17 11:40:38;;;;;;;8.07;3.00;;;17.60;94.20;;;;;;4895689;29;20228;-75
2022/04/17 11:43:16;;;;;;;3.97;2.40;;;17.60;94.30;;;;;;4896061;29;20227;-76
2022/04/17 11:45:45;;;;;;;2.30;2.10;;;17.60;94.80;;;;;;4884085;29;20216;-78
2022/04/17 11:48:16;;;;;;;7.17;4.00;;;16.90;95.10;;;;;;4884816;29;20196;-75
2022/04/17 11:50:43;;;;;;;6.70;3.03;;;16.70;95.00;;;;;;4878000;29;20227;-73
2022/04/17 11:53:15;;;;;;;6.27;3.03;;;17.00;94.90;;;;;;4887712;29;20200;-75
2022/04/17 11:55:44;;;;;;;4.40;2.90;;;17.20;95.10;;;;;;4884348;29;20244;-76
2022/04/17 11:58:22;;;;;;;4.00;2.53;;;17.40;95.10;;;;;;4889384;29;20204;-74
2022/04/17 12:00:59;;;;;;;2.97;2.17;;;17.40;94.80;;;;;;4881871;29;20593;-76
2022/04/17 12:03:45;;;;;;;3.70;2.20;;;17.20;95.20;;;;;;4882935;29;20230;-76
2022/04/17 12:06:11;;;;;;;4.20;2.37;;;17.00;96.60;;;;;;4882158;29;20200;-73
2022/04/17 12:08:40;;;;;;;5.97;2.50;;;17.00;95.80;;;;;;4887409;29;20204;-79
2022/04/17 12:11:08;;;;;;;2.53;2.00;;;17.00;96.00;;;;;;4888318;29;20421;-74
2022/04/17 12:13:36;;;;;;;3.40;2.47;;;17.20;95.90;;;;;;4888116;29;20296;-73
2022/04/17 12:16:05;;;;;;;4.03;2.10;;;17.20;95.30;;;;;;4892133;29;20204;-74
2022/04/17 12:18:33;;;;;;;3.23;2.30;;;16.90;95.60;;;;;;4887322;29;20303;-77
2022/04/17 12:21:02;;;;;;;2.70;2.00;;;16.90;95.80;;;;;;4895939;29;20206;-74
2022/04/17 12:23:32;;;;;;;3.90;2.77;;;16.90;95.30;;;;;;4893533;29;20648;-72
2022/04/17 12:26:01;;;;;;;3.57;2.43;;;16.90;95.30;;;;;;4887878;29;20201;-74
2022/04/17 12:28:28;;;;;;;5.30;2.40;;;17.10;95.80;;;;;;4887498;29;20216;-75
2022/04/17 12:30:55;;;;;;;3.33;2.30;;;17.00;95.90;;;;;;4886565;29;20264;-76
2022/04/17 12:33:27;;;;;;;4.43;2.20;;;17.10;96.20;;;;;;4887764;29;20213;-72
2022/04/17 12:36:06;;;;;;;2.57;2.13;;;17.10;95.70;;;;;;4886672;29;20240;-72
2022/04/17 12:38:38;;;;;;;6.53;2.43;;;17.20;95.90;;;;;;4886788;29;20820;-74
2022/04/17 12:41:28;;;;;;;4.90;2.40;;;17.20;95.40;;;;;;4886524;29;20204;-72
2022/04/17 12:43:55;;;;;;;3.00;2.13;;;17.20;95.10;;;;;;4885794;29;20220;-77
2022/04/17 12:46:30;;;;;;;8.50;4.00;;;17.40;95.70;;;;;;4886777;29;20201;-74
2022/04/17 12:49:08;;;;;;;4.47;2.43;;;17.50;94.20;;;;;;4886056;29;20247;-77
2022/04/17 12:51:39;;;;;;;3.47;2.10;;;17.50;94.70;;;;;;4885922;29;20196;-77
2022/04/17 12:54:09;;;;;;;3.50;1.60;;;17.60;94.30;;;;;;4887169;29;20223;-72
2022/04/17 12:56:37;;;;;;;4.00;2.03;;;17.50;94.10;;;;;;4885923;29;20673;-73
2022/04/17 12:59:04;;;;;;;2.57;1.93;;;17.60;94.20;;;;;;4886553;29;20231;-75
2022/04/17 13:01:33;;;;;;;3.30;1.80;;;17.80;94.10;;;;;;4887305;29;20221;-73
2022/04/17 13:04:19;;;;;;;3.83;2.10;;;18.00;93.90;;;;;;4896831;29;20259;-73
2022/04/17 13:06:50;;;;;;;4.20;2.00;;;17.70;93.50;;;;;;4926844;29;20204;-75
2022/04/17 13:09:22;;;;;;;3.87;1.97;;;17.40;93.50;;;;;;4911725;29;20303;-74
2022/04/17 13:11:53;;;;;;;6.83;1.70;;;17.10;93.70;;;;;;4889261;29;20200;-73
2022/04/17 13:14:21;;;;;;;3.63;1.70;;;17.10;94.40;;;;;;4890481;29;20223;-72
2022/04/17 13:16:52;;;;;;;2.43;1.60;;;17.30;93.30;;;;;;4890411;29;20210;-75
2022/04/17 13:19:23;;;;;;;3.03;1.80;;;17.40;92.30;;;;;;4889268;29;20795;-73
2022/04/17 13:21:52;;;;;;;2.27;1.50;;;17.50;92.40;;;;;;4891288;29;20242;-75